Time;durP1;ratioP1;P1;durP2;ratioP2;P2;SDS_P1;SDS_P2;PMS_P1;PMS_P2;Temp;Humidity;BMP_temperature;BMP_pressure;BME280_temperature;BME280_humidity;BME280_pressure;Samples;Min_cycle;Max_cycle;Signal;HPM_P1;HPM_P2
2023/08/06 00:02:32;;;;;;;3.67;2.75;;;;;;;;;;4993440;28;20037;-74
2023/08/06 00:05:23;;;;;;;4.03;3.13;;;;;;;;;;4992251;28;20042;-73
2023/08/06 00:08:08;;;;;;;2.95;2.20;;;;;;;;;;5015143;28;20029;-74
2023/08/06 00:10:53;;;;;;;4.10;2.55;;;;;;;;;;5004887;28;20104;-73
2023/08/06 00:13:39;;;;;;;6.55;3.55;;;;;;;;;;5008332;28;20177;-74
2023/08/06 00:16:24;;;;;;;2.97;2.67;;;;;;;;;;5008463;28;20033;-67
2023/08/06 00:19:09;;;;;;;4.40;2.72;;;;;;;;;;5006725;28;20476;-78
2023/08/06 00:21:54;;;;;;;6.15;3.60;;;;;;;;;;5008394;28;20064;-79
2023/08/06 00:24:39;;;;;;;4.53;2.78;;;;;;;;;;4990490;28;20036;-79
2023/08/06 00:27:25;;;;;;;4.32;2.83;;;;;;;;;;5008398;28;20050;-78
2023/08/06 00:30:10;;;;;;;5.57;3.35;;;;;;;;;;5022449;28;20099;-79
2023/08/06 00:32:56;;;;;;;8.00;3.72;;;;;;;;;;5003065;28;20183;-67
2023/08/06 00:35:41;;;;;;;5.25;3.67;;;;;;;;;;4994991;28;20080;-63
2023/08/06 00:38:26;;;;;;;4.75;3.17;;;;;;;;;;5004178;28;20037;-62
2023/08/06 00:41:11;;;;;;;6.70;3.88;;;;;;;;;;4989810;28;20041;-63
2023/08/06 00:43:56;;;;;;;5.28;3.47;;;;;;;;;;5022256;28;20026;-63
2023/08/06 00:46:42;;;;;;;4.93;3.08;;;;;;;;;;5007517;28;20500;-64
2023/08/06 00:49:27;;;;;;;6.10;3.38;;;;;;;;;;5006344;28;20111;-63
2023/08/06 00:52:13;;;;;;;5.15;3.53;;;;;;;;;;4998171;28;20038;-74
2023/08/06 00:54:59;;;;;;;4.72;2.63;;;;;;;;;;4995397;28;20045;-68
2023/08/06 00:57:44;;;;;;;5.35;3.08;;;;;;;;;;5007965;28;20040;-68
2023/08/06 01:00:29;;;;;;;4.72;3.08;;;;;;;;;;5008156;28;20025;-67
2023/08/06 01:03:15;;;;;;;4.57;3.30;;;;;;;;;;4992907;28;20491;-68
2023/08/06 01:06:00;;;;;;;4.90;2.95;;;;;;;;;;5008277;28;20536;-68
2023/08/06 01:08:49;;;;;;;4.75;3.40;;;;;;;;;;4993956;28;20293;-72
2023/08/06 01:11:41;;;;;;;5.90;2.80;;;;;;;;;;4997479;28;20057;-74
2023/08/06 01:14:47;;;;;;;6.85;3.30;;;;;;;;;;5003630;28;20027;-67
2023/08/06 01:17:33;;;;;;;3.17;2.60;;;;;;;;;;4995303;28;20065;-67
2023/08/06 01:20:18;;;;;;;4.15;2.65;;;;;;;;;;5007678;28;20034;-66
2023/08/06 01:23:04;;;;;;;6.10;3.13;;;;;;;;;;5011337;28;20137;-67
2023/08/06 01:25:55;;;;;;;3.45;2.30;;;;;;;;;;5024425;28;20117;-67
2023/08/06 01:28:45;;;;;;;4.65;3.05;;;;;;;;;;5010708;28;20058;-74
2023/08/06 01:31:31;;;;;;;6.05;2.67;;;;;;;;;;5005556;28;20484;-68
2023/08/06 01:34:28;;;;;;;4.25;2.97;;;;;;;;;;5010886;28;20542;-68
2023/08/06 01:37:13;;;;;;;3.22;2.40;;;;;;;;;;5020405;28;20119;-69
2023/08/06 01:39:59;;;;;;;3.92;2.60;;;;;;;;;;4995331;28;20030;-70
2023/08/06 01:42:44;;;;;;;5.65;2.88;;;;;;;;;;5009567;28;20515;-68
2023/08/06 01:45:29;;;;;;;8.85;2.90;;;;;;;;;;5004383;28;20103;-75
2023/08/06 01:48:15;;;;;;;3.35;2.50;;;;;;;;;;5002881;28;20211;-68
2023/08/06 01:51:00;;;;;;;4.78;2.20;;;;;;;;;;5006829;28;20096;-78
2023/08/06 01:53:45;;;;;;;4.22;2.78;;;;;;;;;;5010943;28;20030;-78
2023/08/06 01:56:30;;;;;;;6.00;3.10;;;;;;;;;;5009832;28;20038;-78
2023/08/06 01:59:15;;;;;;;4.05;2.58;;;;;;;;;;5011172;28;20022;-78
2023/08/06 02:02:01;;;;;;;6.18;3.33;;;;;;;;;;5023069;28;20041;-78
2023/08/06 02:04:46;;;;;;;4.72;2.95;;;;;;;;;;5010452;28;20772;-75
2023/08/06 02:07:31;;;;;;;3.53;2.70;;;;;;;;;;5006737;28;20037;-71
2023/08/06 02:10:16;;;;;;;4.28;3.30;;;;;;;;;;5011024;28;20037;-72
2023/08/06 02:13:02;;;;;;;4.13;2.67;;;;;;;;;;5010125;28;20034;-72
2023/08/06 02:15:47;;;;;;;3.97;2.92;;;;;;;;;;5010668;28;20040;-71
2023/08/06 02:18:32;;;;;;;4.82;3.00;;;;;;;;;;5008603;28;20040;-72
2023/08/06 02:21:17;;;;;;;3.88;2.45;;;;;;;;;;5010205;28;20032;-71
2023/08/06 02:24:03;;;;;;;3.15;2.30;;;;;;;;;;5010496;28;20104;-68
2023/08/06 02:26:50;;;;;;;5.55;2.58;;;;;;;;;;4998018;28;20060;-77
2023/08/06 02:29:36;;;;;;;3.42;2.28;;;;;;;;;;5010808;28;20026;-75
2023/08/06 02:32:21;;;;;;;3.38;2.35;;;;;;;;;;5023134;28;20069;-76
2023/08/06 02:35:06;;;;;;;6.53;2.70;;;;;;;;;;5009723;28;20610;-79
2023/08/06 02:37:51;;;;;;;5.43;2.05;;;;;;;;;;5010006;28;20029;-78
2023/08/06 02:40:36;;;;;;;3.35;1.98;;;;;;;;;;5009607;28;20021;-66
2023/08/06 02:43:22;;;;;;;4.22;2.55;;;;;;;;;;5002827;28;20511;-67
2023/08/06 02:46:07;;;;;;;4.88;2.55;;;;;;;;;;5001426;28;20069;-66
2023/08/06 02:48:52;;;;;;;3.65;2.20;;;;;;;;;;5019326;28;20424;-67
2023/08/06 02:51:37;;;;;;;3.45;2.50;;;;;;;;;;5023545;28;20088;-67
2023/08/06 02:54:22;;;;;;;4.43;2.10;;;;;;;;;;4997130;28;20026;-67
2023/08/06 02:57:08;;;;;;;4.38;2.40;;;;;;;;;;5006648;28;20052;-67
2023/08/06 02:59:53;;;;;;;4.28;2.70;;;;;;;;;;5000774;28;20036;-73
2023/08/06 03:02:38;;;;;;;3.15;2.28;;;;;;;;;;4983276;28;20057;-72
2023/08/06 03:05:23;;;;;;;3.30;2.40;;;;;;;;;;5009522;28;20057;-71
2023/08/06 03:08:08;;;;;;;4.22;2.30;;;;;;;;;;4995385;28;20122;-72
2023/08/06 03:10:54;;;;;;;4.47;2.65;;;;;;;;;;4995111;28;20485;-71
2023/08/06 03:13:39;;;;;;;3.80;2.40;;;;;;;;;;5009636;28;20115;-73
2023/08/06 03:16:24;;;;;;;3.50;2.22;;;;;;;;;;5009533;28;20033;-71
2023/08/06 03:19:09;;;;;;;4.13;2.75;;;;;;;;;;5007702;28;20033;-72
2023/08/06 03:21:55;;;;;;;2.85;2.22;;;;;;;;;;5009581;28;20030;-74
2023/08/06 03:24:40;;;;;;;4.72;2.35;;;;;;;;;;4999054;28;20041;-73
2023/08/06 03:27:46;;;;;;;4.55;2.30;;;;;;;;;;4997675;28;20547;-73
2023/08/06 03:30:31;;;;;;;3.33;2.15;;;;;;;;;;5002245;28;20030;-72
2023/08/06 03:33:16;;;;;;;4.68;2.28;;;;;;;;;;5020812;28;20040;-73
2023/08/06 03:36:01;;;;;;;9.27;2.53;;;;;;;;;;5022539;28;20037;-73
2023/08/06 03:38:47;;;;;;;5.75;2.38;;;;;;;;;;5008317;28;20646;-65
2023/08/06 03:41:32;;;;;;;2.97;2.03;;;;;;;;;;5009731;28;20029;-78
2023/08/06 03:44:17;;;;;;;4.70;2.35;;;;;;;;;;5006629;28;20033;-77
2023/08/06 03:47:02;;;;;;;4.20;2.63;;;;;;;;;;5009095;28;20036;-76
2023/08/06 03:49:49;;;;;;;5.07;2.35;;;;;;;;;;5007659;28;20061;-75
2023/08/06 03:52:34;;;;;;;5.53;3.05;;;;;;;;;;4995273;28;20096;-77
2023/08/06 03:55:20;;;;;;;2.60;2.10;;;;;;;;;;5003510;28;20161;-74
2023/08/06 03:58:05;;;;;;;4.13;2.33;;;;;;;;;;5021194;28;20428;-64
2023/08/06 04:00:57;;;;;;;5.03;2.38;;;;;;;;;;5008224;28;20037;-63
2023/08/06 04:03:42;;;;;;;4.18;2.60;;;;;;;;;;5005988;28;20030;-63
2023/08/06 04:06:27;;;;;;;4.45;2.40;;;;;;;;;;4997322;28;20480;-63
2023/08/06 04:09:13;;;;;;;3.38;2.13;;;;;;;;;;5007547;28;20121;-63
2023/08/06 04:11:58;;;;;;;4.90;2.15;;;;;;;;;;5007776;28;20041;-62
2023/08/06 04:14:43;;;;;;;2.88;1.83;;;;;;;;;;5007784;28;20488;-72
2023/08/06 04:17:29;;;;;;;4.78;2.20;;;;;;;;;;5019712;28;20063;-69
2023/08/06 04:20:14;;;;;;;4.07;2.30;;;;;;;;;;5007765;28;20033;-71
2023/08/06 04:23:05;;;;;;;3.40;2.20;;;;;;;;;;5008158;28;20037;-72
2023/08/06 04:25:50;;;;;;;5.05;1.90;;;;;;;;;;5022199;28;20392;-73
2023/08/06 04:28:35;;;;;;;5.05;2.47;;;;;;;;;;5003229;28;20072;-72
2023/08/06 04:31:21;;;;;;;5.55;2.83;;;;;;;;;;5005510;28;20071;-74
2023/08/06 04:34:09;;;;;;;4.13;2.03;;;;;;;;;;5007851;28;20116;-73
2023/08/06 04:36:54;;;;;;;6.50;2.17;;;;;;;;;;5022324;28;20076;-75
2023/08/06 04:39:39;;;;;;;2.70;1.88;;;;;;;;;;5021743;28;20072;-73
2023/08/06 04:42:25;;;;;;;3.58;1.95;;;;;;;;;;4990216;28;20465;-74
2023/08/06 04:45:10;;;;;;;4.55;2.45;;;;;;;;;;5012062;28;20048;-72
2023/08/06 04:47:55;;;;;;;3.45;2.13;;;;;;;;;;5011842;28;20381;-73
2023/08/06 04:50:47;;;;;;;3.10;2.03;;;;;;;;;;5011308;28;20125;-69
2023/08/06 04:53:32;;;;;;;2.90;1.90;;;;;;;;;;5011718;28;20045;-62
2023/08/06 04:56:18;;;;;;;5.65;2.03;;;;;;;;;;5026155;28;20064;-62
2023/08/06 04:59:03;;;;;;;5.05;2.42;;;;;;;;;;5023580;28;20381;-62
2023/08/06 05:01:48;;;;;;;4.25;2.30;;;;;;;;;;5003936;28;20030;-62
2023/08/06 05:04:33;;;;;;;4.20;2.17;;;;;;;;;;4995320;28;20029;-62
2023/08/06 05:07:18;;;;;;;3.53;1.65;;;;;;;;;;5025879;28;20077;-62
2023/08/06 05:10:04;;;;;;;4.15;2.30;;;;;;;;;;5010885;28;20034;-61
2023/08/06 05:12:49;;;;;;;4.20;1.70;;;;;;;;;;5010043;28;20026;-73
2023/08/06 05:15:34;;;;;;;4.88;1.58;;;;;;;;;;4991114;28;20377;-73
2023/08/06 05:18:20;;;;;;;3.55;1.90;;;;;;;;;;5011444;28;20014;-73
2023/08/06 05:21:05;;;;;;;5.40;1.40;;;;;;;;;;5006954;28;20173;-73
2023/08/06 05:23:50;;;;;;;3.15;1.52;;;;;;;;;;5001338;28;20030;-73
2023/08/06 05:26:36;;;;;;;3.67;1.48;;;;;;;;;;5011030;28;20061;-69
2023/08/06 05:29:21;;;;;;;2.72;1.50;;;;;;;;;;5003190;28;20235;-74
2023/08/06 05:32:06;;;;;;;5.90;2.03;;;;;;;;;;5021247;28;20033;-69
2023/08/06 05:34:52;;;;;;;3.42;1.40;;;;;;;;;;5010249;28;20075;-71
2023/08/06 05:37:37;;;;;;;2.05;1.38;;;;;;;;;;5010907;28;20018;-68
2023/08/06 05:40:22;;;;;;;4.32;1.63;;;;;;;;;;4999884;28;20084;-70
2023/08/06 05:43:07;;;;;;;1.63;1.33;;;;;;;;;;5022663;28;20331;-69
2023/08/06 05:45:53;;;;;;;2.67;1.42;;;;;;;;;;4998218;28;20067;-67
2023/08/06 05:48:38;;;;;;;2.60;1.50;;;;;;;;;;5023066;28;20037;-68
2023/08/06 05:51:23;;;;;;;3.20;1.00;;;;;;;;;;5000088;28;20385;-67
2023/08/06 05:54:08;;;;;;;3.75;1.25;;;;;;;;;;5004275;28;20363;-67
2023/08/06 05:56:54;;;;;;;1.67;1.00;;;;;;;;;;5005511;28;20033;-67
2023/08/06 05:59:40;;;;;;;3.17;1.13;;;;;;;;;;5016045;28;20021;-70
2023/08/06 06:02:25;;;;;;;4.63;1.00;;;;;;;;;;5008186;28;20030;-67
2023/08/06 06:05:10;;;;;;;2.50;0.95;;;;;;;;;;4993460;28;20037;-67
2023/08/06 06:07:56;;;;;;;1.98;1.00;;;;;;;;;;5011432;28;20057;-75
2023/08/06 06:10:41;;;;;;;2.53;0.85;;;;;;;;;;5010375;28;20468;-77
2023/08/06 06:13:26;;;;;;;1.77;0.70;;;;;;;;;;5023275;28;20431;-77
2023/08/06 06:16:11;;;;;;;2.58;0.80;;;;;;;;;;5010402;28;20021;-78
2023/08/06 06:18:57;;;;;;;3.95;1.65;;;;;;;;;;5010396;28;20042;-77
2023/08/06 06:21:42;;;;;;;2.55;1.33;;;;;;;;;;5009666;28;20032;-78
2023/08/06 06:24:27;;;;;;;3.25;0.88;;;;;;;;;;5016470;28;20022;-62
2023/08/06 06:27:12;;;;;;;1.70;0.90;;;;;;;;;;5009228;28;20058;-68
2023/08/06 06:29:58;;;;;;;1.83;1.17;;;;;;;;;;5007876;28;20485;-67
2023/08/06 06:32:43;;;;;;;2.22;0.75;;;;;;;;;;4997500;28;20040;-67
2023/08/06 06:35:28;;;;;;;2.60;0.90;;;;;;;;;;5009014;28;20030;-67
2023/08/06 06:38:13;;;;;;;2.50;0.98;;;;;;;;;;5008844;28;20025;-71
2023/08/06 06:40:59;;;;;;;1.70;1.20;;;;;;;;;;5010255;28;20108;-71
2023/08/06 06:43:44;;;;;;;2.03;1.13;;;;;;;;;;5008798;28;20045;-76
2023/08/06 06:46:29;;;;;;;1.20;0.80;;;;;;;;;;4990668;28;20030;-74
2023/08/06 06:49:14;;;;;;;0.85;0.70;;;;;;;;;;5010342;28;20026;-75
2023/08/06 06:52:00;;;;;;;1.75;0.63;;;;;;;;;;5008964;28;20045;-74
2023/08/06 06:54:45;;;;;;;3.10;1.13;;;;;;;;;;5009652;28;20026;-73
2023/08/06 06:57:30;;;;;;;2.05;0.93;;;;;;;;;;4995558;28;20154;-73
2023/08/06 07:00:15;;;;;;;4.93;1.10;;;;;;;;;;5022300;28;20615;-71
2023/08/06 07:03:00;;;;;;;1.45;0.90;;;;;;;;;;5009959;28;20048;-72
2023/08/06 07:05:46;;;;;;;1.38;0.82;;;;;;;;;;5022089;28;20029;-72
2023/08/06 07:08:31;;;;;;;3.70;1.20;;;;;;;;;;5022922;28;20044;-73
2023/08/06 07:11:16;;;;;;;2.42;1.10;;;;;;;;;;5008510;28;20113;-73
2023/08/06 07:14:01;;;;;;;2.15;1.05;;;;;;;;;;5008457;28;20034;-74
2023/08/06 07:16:47;;;;;;;1.52;1.00;;;;;;;;;;5022274;28;20029;-66
2023/08/06 07:19:32;;;;;;;3.13;1.60;;;;;;;;;;5007769;28;20034;-67
2023/08/06 07:22:17;;;;;;;1.45;0.90;;;;;;;;;;5009335;28;20030;-75
2023/08/06 07:25:02;;;;;;;1.08;0.80;;;;;;;;;;5006838;28;20038;-76
2023/08/06 07:27:48;;;;;;;2.80;0.95;;;;;;;;;;5022404;28;20053;-75
2023/08/06 07:30:33;;;;;;;2.33;0.77;;;;;;;;;;5003815;28;20026;-76
2023/08/06 07:33:18;;;;;;;1.02;0.77;;;;;;;;;;5002084;28;20029;-75
2023/08/06 07:36:13;;;;;;;1.92;0.70;;;;;;;;;;5022159;28;20037;-69
2023/08/06 07:38:58;;;;;;;2.55;0.80;;;;;;;;;;5010315;28;20520;-78
2023/08/06 07:41:45;;;;;;;2.13;0.95;;;;;;;;;;5007666;28;20405;-78
2023/08/06 07:44:31;;;;;;;0.98;0.70;;;;;;;;;;5007394;28;20493;-78
2023/08/06 07:47:16;;;;;;;1.52;0.80;;;;;;;;;;5009137;28;20037;-76
2023/08/06 07:50:01;;;;;;;1.95;0.60;;;;;;;;;;5022241;28;20030;-76
2023/08/06 07:52:46;;;;;;;1.13;0.60;;;;;;;;;;5009035;28;20056;-79
2023/08/06 07:55:31;;;;;;;0.93;0.52;;;;;;;;;;5008316;28;20061;-72
2023/08/06 07:58:17;;;;;;;3.38;0.68;;;;;;;;;;5008667;28;20068;-68
2023/08/06 08:01:02;;;;;;;2.05;0.63;;;;;;;;;;5020648;28;20029;-68
2023/08/06 08:03:47;;;;;;;2.50;0.77;;;;;;;;;;5007483;28;20029;-67
2023/08/06 08:06:33;;;;;;;1.30;0.70;;;;;;;;;;5022393;28;20042;-69
2023/08/06 08:09:18;;;;;;;0.93;0.75;;;;;;;;;;5005595;28;20362;-68
2023/08/06 08:12:04;;;;;;;1.25;0.60;;;;;;;;;;5008895;28;20307;-70
2023/08/06 08:14:49;;;;;;;0.52;0.50;;;;;;;;;;5008092;28;20388;-70
2023/08/06 08:17:34;;;;;;;0.95;0.60;;;;;;;;;;5002855;28;20033;-77
2023/08/06 08:20:20;;;;;;;0.70;0.57;;;;;;;;;;4994524;28;20109;-77
2023/08/06 08:23:05;;;;;;;0.82;0.60;;;;;;;;;;5008064;28;20038;-77
2023/08/06 08:25:51;;;;;;;2.15;0.73;;;;;;;;;;5007414;28;20687;-79
2023/08/06 08:28:36;;;;;;;0.95;0.60;;;;;;;;;;5007028;28;20062;-77
2023/08/06 08:31:21;;;;;;;1.38;0.50;;;;;;;;;;5007389;28;20543;-72
2023/08/06 08:34:06;;;;;;;1.80;0.60;;;;;;;;;;5007530;28;20126;-78
2023/08/06 08:36:51;;;;;;;0.60;0.50;;;;;;;;;;5007774;28;20144;-80
2023/08/06 08:39:37;;;;;;;0.63;0.60;;;;;;;;;;5021647;28;20033;-79
2023/08/06 08:42:23;;;;;;;0.80;0.60;;;;;;;;;;5003604;28;20358;-77
2023/08/06 08:45:13;;;;;;;0.93;0.50;;;;;;;;;;4992969;28;20025;-79
2023/08/06 08:47:58;;;;;;;0.40;0.40;;;;;;;;;;5019531;28;20034;-78
2023/08/06 08:50:44;;;;;;;0.50;0.40;;;;;;;;;;5016904;28;20385;-69
2023/08/06 08:53:30;;;;;;;0.40;0.40;;;;;;;;;;4992467;28;20068;-75
2023/08/06 08:56:15;;;;;;;0.50;0.50;;;;;;;;;;4993431;28;20049;-76
2023/08/06 08:59:00;;;;;;;0.50;0.50;;;;;;;;;;5007238;28;20394;-75
2023/08/06 09:01:50;;;;;;;0.93;0.70;;;;;;;;;;5004039;28;20042;-75
2023/08/06 09:04:36;;;;;;;0.50;0.50;;;;;;;;;;5005778;28;20515;-77
2023/08/06 09:07:21;;;;;;;0.40;0.40;;;;;;;;;;5006163;28;20034;-68
2023/08/06 09:10:10;;;;;;;0.52;0.50;;;;;;;;;;5011551;28;20033;-71
2023/08/06 09:12:56;;;;;;;0.60;0.50;;;;;;;;;;5004149;28;20384;-71
2023/08/06 09:15:41;;;;;;;0.60;0.60;;;;;;;;;;4998490;28;20038;-72
2023/08/06 09:18:29;;;;;;;2.30;1.15;;;;;;;;;;5007586;28;20026;-70
2023/08/06 09:21:16;;;;;;;2.25;0.95;;;;;;;;;;5003923;28;20040;-72
2023/08/06 09:24:01;;;;;;;0.50;0.50;;;;;;;;;;5005153;28;20040;-71
2023/08/06 09:26:46;;;;;;;0.63;0.60;;;;;;;;;;5003520;28;20134;-70
2023/08/06 09:29:32;;;;;;;0.60;0.60;;;;;;;;;;5007606;28;20109;-65
2023/08/06 09:32:18;;;;;;;0.73;0.50;;;;;;;;;;5024715;28;20029;-65
2023/08/06 09:35:05;;;;;;;0.85;0.60;;;;;;;;;;5010934;28;20080;-68
2023/08/06 09:37:50;;;;;;;0.90;0.50;;;;;;;;;;5020279;28;20027;-67
2023/08/06 09:40:36;;;;;;;2.75;0.50;;;;;;;;;;5010214;28;20029;-69
2023/08/06 09:43:22;;;;;;;0.70;0.60;;;;;;;;;;5009526;28;20033;-70
2023/08/06 09:46:13;;;;;;;0.40;0.40;;;;;;;;;;5010547;28;20109;-72
2023/08/06 09:48:58;;;;;;;0.40;0.40;;;;;;;;;;5024473;28;20030;-73
2023/08/06 09:51:44;;;;;;;0.50;0.50;;;;;;;;;;5010231;28;20026;-74
2023/08/06 09:54:30;;;;;;;0.50;0.50;;;;;;;;;;4998378;28;20216;-73
2023/08/06 09:57:15;;;;;;;0.77;0.50;;;;;;;;;;5023009;28;20056;-74
2023/08/06 10:00:01;;;;;;;0.50;0.50;;;;;;;;;;5009219;28;20037;-73
2023/08/06 10:02:46;;;;;;;1.13;0.50;;;;;;;;;;5003896;28;20038;-75
2023/08/06 10:05:32;;;;;;;2.42;0.63;;;;;;;;;;5008245;28;20041;-72
2023/08/06 10:08:17;;;;;;;1.13;0.50;;;;;;;;;;5008685;28;20152;-71
2023/08/06 10:11:04;;;;;;;1.67;0.43;;;;;;;;;;5006497;28;20128;-73
2023/08/06 10:13:50;;;;;;;0.93;0.70;;;;;;;;;;5001172;28;20123;-74
2023/08/06 10:16:36;;;;;;;0.52;0.50;;;;;;;;;;5016163;28;20485;-73
2023/08/06 10:19:21;;;;;;;0.63;0.57;;;;;;;;;;4999700;28;20026;-72
2023/08/06 10:22:13;;;;;;;0.47;0.47;;;;;;;;;;5003084;28;20044;-64
2023/08/06 10:25:04;;;;;;;0.70;0.63;;;;;;;;;;4986483;28;20026;-75
2023/08/06 10:27:49;;;;;;;2.35;0.77;;;;;;;;;;5009284;28;20600;-76
2023/08/06 10:30:40;;;;;;;1.33;0.60;;;;;;;;;;5001194;28;20030;-75
2023/08/06 10:33:39;;;;;;;0.80;0.50;;;;;;;;;;5010804;28;20030;-75
2023/08/06 10:36:26;;;;;;;0.57;0.50;;;;;;;;;;5025990;28;20038;-76
2023/08/06 10:39:15;;;;;;;3.92;0.60;;;;;;;;;;4998588;28;20041;-76
2023/08/06 10:42:00;;;;;;;;;;;;;;;;;;4992563;28;20085;-68
2023/08/06 10:45:28;;;;;;;0.50;0.50;;;;;;;;;;5024012;28;19906;-82
2023/08/06 10:48:28;;;;;;;0.80;0.50;;;;;;;;;;4939433;28;20031;-79
2023/08/06 10:51:14;;;;;;;1.95;0.65;;;;;;;;;;4955538;28;20061;-80
2023/08/06 10:54:00;;;;;;;0.77;0.63;;;;;;;;;;4955828;28;20038;-79
2023/08/06 10:56:47;;;;;;;3.53;1.00;;;;;;;;;;4956459;28;20030;-79
2023/08/06 10:59:33;;;;;;;0.77;0.70;;;;;;;;;;4955740;28;20085;-78
2023/08/06 11:02:18;;;;;;;0.60;0.60;;;;;;;;;;4955067;28;20027;-66
2023/08/06 11:05:07;;;;;;;0.60;0.60;;;;;;;;;;4955434;28;20038;-67
2023/08/06 11:07:52;;;;;;;1.30;0.50;;;;;;;;;;4951081;28;20132;-68
2023/08/06 11:10:37;;;;;;;0.60;0.60;;;;;;;;;;4954850;28;20251;-66
2023/08/06 11:13:24;;;;;;;0.50;0.50;;;;;;;;;;4941254;28;20117;-68
2023/08/06 11:16:09;;;;;;;0.65;0.52;;;;;;;;;;4954985;28;20426;-75
2023/08/06 11:18:56;;;;;;;0.90;0.60;;;;;;;;;;4974894;28;20034;-79
2023/08/06 11:21:43;;;;;;;0.45;0.45;;;;;;;;;;5005633;28;20038;-70
2023/08/06 11:24:29;;;;;;;0.73;0.60;;;;;;;;;;5009149;28;20477;-70
2023/08/06 11:27:15;;;;;;;0.50;0.50;;;;;;;;;;5002445;28;20066;-70
2023/08/06 11:30:00;;;;;;;0.75;0.60;;;;;;;;;;5009382;28;20499;-70
2023/08/06 11:32:47;;;;;;;0.68;0.55;;;;;;;;;;5003536;28;20033;-71
2023/08/06 11:35:33;;;;;;;0.63;0.60;;;;;;;;;;4994042;28;20033;-80
2023/08/06 11:38:19;;;;;;;0.75;0.75;;;;;;;;;;5008428;28;20385;-74
2023/08/06 11:41:06;;;;;;;0.73;0.60;;;;;;;;;;4994926;28;20468;-74
2023/08/06 11:43:51;;;;;;;0.70;0.70;;;;;;;;;;5008038;28;20038;-75
2023/08/06 11:46:52;;;;;;;1.80;1.02;;;;;;;;;;4995318;28;20026;-75
2023/08/06 11:49:44;;;;;;;1.70;0.82;;;;;;;;;;4998461;28;20576;-74
2023/08/06 11:52:31;;;;;;;1.77;1.02;;;;;;;;;;5002566;28;20041;-75
2023/08/06 11:55:18;;;;;;;1.98;0.80;;;;;;;;;;4997558;28;20481;-72
2023/08/06 11:58:04;;;;;;;2.47;1.42;;;;;;;;;;5007932;28;20108;-73
2023/08/06 12:00:50;;;;;;;0.98;0.82;;;;;;;;;;5004492;28;20037;-72
2023/08/06 12:03:41;;;;;;;1.58;1.00;;;;;;;;;;5021928;28;20045;-72
2023/08/06 12:06:27;;;;;;;1.35;0.90;;;;;;;;;;4996639;28;20041;-72
2023/08/06 12:09:12;;;;;;;1.30;1.02;;;;;;;;;;5007519;28;20034;-72
2023/08/06 12:11:57;;;;;;;2.88;1.58;;;;;;;;;;5021750;28;20496;-71
2023/08/06 12:14:42;;;;;;;0.95;0.90;;;;;;;;;;4995275;28;20405;-63
2023/08/06 12:17:28;;;;;;;1.63;1.42;;;;;;;;;;5015827;28;20026;-64
2023/08/06 12:20:13;;;;;;;2.67;1.17;;;;;;;;;;5017700;28;20037;-64
2023/08/06 12:22:58;;;;;;;1.95;1.00;;;;;;;;;;5017360;28;20025;-65
2023/08/06 12:25:44;;;;;;;1.55;1.00;;;;;;;;;;5003043;28;20058;-64
2023/08/06 12:28:29;;;;;;;1.65;0.90;;;;;;;;;;5016542;28;20046;-63
2023/08/06 12:31:15;;;;;;;1.23;1.10;;;;;;;;;;4999910;28;20030;-73
2023/08/06 12:34:00;;;;;;;1.52;0.90;;;;;;;;;;5008272;28;20385;-68
2023/08/06 12:36:45;;;;;;;3.72;1.23;;;;;;;;;;5021447;28;20034;-68
2023/08/06 12:39:31;;;;;;;2.85;1.33;;;;;;;;;;5007873;28;20068;-67
2023/08/06 12:42:16;;;;;;;1.52;1.10;;;;;;;;;;5007042;28;20540;-68
2023/08/06 12:45:02;;;;;;;2.20;1.30;;;;;;;;;;5018887;28;20045;-70
2023/08/06 12:47:48;;;;;;;1.10;0.95;;;;;;;;;;5008200;28;20055;-68
2023/08/06 12:50:34;;;;;;;1.50;0.90;;;;;;;;;;5018288;28;20084;-73
2023/08/06 12:53:20;;;;;;;1.67;0.93;;;;;;;;;;5007680;28;20072;-69
2023/08/06 12:56:06;;;;;;;1.70;0.90;;;;;;;;;;5008857;28;20037;-69
2023/08/06 12:58:51;;;;;;;1.27;0.90;;;;;;;;;;5016568;28;20038;-68
2023/08/06 13:01:39;;;;;;;2.28;1.05;;;;;;;;;;5014662;28;20034;-67
2023/08/06 13:04:25;;;;;;;2.00;1.00;;;;;;;;;;5007569;28;20030;-68
2023/08/06 13:07:10;;;;;;;1.73;1.00;;;;;;;;;;5007717;28;20026;-67
2023/08/06 13:09:55;;;;;;;3.40;1.25;;;;;;;;;;4987526;28;20705;-79
2023/08/06 13:12:40;;;;;;;0.90;0.80;;;;;;;;;;5011162;28;20153;-80
2023/08/06 13:15:26;;;;;;;2.00;0.93;;;;;;;;;;5010833;28;20041;-76
2023/08/06 13:18:11;;;;;;;0.95;0.88;;;;;;;;;;5011670;28;20065;-78
2023/08/06 13:20:56;;;;;;;2.83;1.08;;;;;;;;;;5007211;28;20455;-78
2023/08/06 13:23:42;;;;;;;1.08;0.93;;;;;;;;;;5024202;28;20068;-79
2023/08/06 13:26:27;;;;;;;1.75;1.05;;;;;;;;;;5023494;28;20037;-67
2023/08/06 13:29:12;;;;;;;1.80;0.98;;;;;;;;;;4997641;28;20408;-68
2023/08/06 13:31:58;;;;;;;2.05;1.15;;;;;;;;;;5006149;28;20036;-68
2023/08/06 13:34:43;;;;;;;1.60;1.00;;;;;;;;;;5004284;28;20026;-68
2023/08/06 13:37:28;;;;;;;1.90;0.93;;;;;;;;;;5024709;28;20461;-66
2023/08/06 13:40:13;;;;;;;1.15;0.90;;;;;;;;;;5010883;28;20029;-68
2023/08/06 13:42:59;;;;;;;1.48;1.00;;;;;;;;;;4997214;28;20472;-68
2023/08/06 13:45:44;;;;;;;1.15;0.70;;;;;;;;;;5024067;28;20066;-72
2023/08/06 13:48:30;;;;;;;0.60;0.57;;;;;;;;;;4983178;28;20034;-73
2023/08/06 13:51:15;;;;;;;1.48;0.80;;;;;;;;;;5007228;28;20116;-72
2023/08/06 13:54:00;;;;;;;2.42;0.80;;;;;;;;;;5009244;28;20032;-72
2023/08/06 13:56:45;;;;;;;2.17;0.80;;;;;;;;;;5003229;28;20065;-72
2023/08/06 13:59:30;;;;;;;0.82;0.68;;;;;;;;;;4998677;28;20090;-71
2023/08/06 14:02:16;;;;;;;2.10;0.70;;;;;;;;;;5010325;28;20205;-67
2023/08/06 14:05:01;;;;;;;1.77;0.88;;;;;;;;;;5024072;28;20033;-68
2023/08/06 14:07:46;;;;;;;1.10;0.90;;;;;;;;;;5019891;28;20040;-66
2023/08/06 14:10:31;;;;;;;1.45;0.80;;;;;;;;;;5024192;28;20049;-66
2023/08/06 14:13:17;;;;;;;0.82;0.80;;;;;;;;;;4989836;28;20034;-66
2023/08/06 14:16:03;;;;;;;1.33;0.73;;;;;;;;;;5008073;28;20403;-68
2023/08/06 14:18:48;;;;;;;1.27;0.82;;;;;;;;;;5024166;28;20120;-66
2023/08/06 14:21:33;;;;;;;1.13;0.82;;;;;;;;;;4997276;28;20033;-64
2023/08/06 14:24:18;;;;;;;4.03;0.90;;;;;;;;;;5007770;28;20408;-63
2023/08/06 14:27:05;;;;;;;2.80;0.85;;;;;;;;;;5023215;28;20053;-63
2023/08/06 14:29:51;;;;;;;1.52;0.80;;;;;;;;;;5009838;28;20041;-63
2023/08/06 14:32:36;;;;;;;2.17;0.90;;;;;;;;;;5009122;28;20029;-62
2023/08/06 14:35:21;;;;;;;1.17;1.00;;;;;;;;;;5010089;28;20069;-64
2023/08/06 14:38:07;;;;;;;1.20;0.90;;;;;;;;;;5021833;28;20112;-65
2023/08/06 14:40:52;;;;;;;3.25;0.60;;;;;;;;;;5010070;28;20096;-70
2023/08/06 14:43:37;;;;;;;0.80;0.80;;;;;;;;;;5023057;28;20029;-72
2023/08/06 14:46:22;;;;;;;0.85;0.80;;;;;;;;;;5009428;28;20117;-73
2023/08/06 14:49:07;;;;;;;1.40;0.80;;;;;;;;;;5009416;28;20037;-71
2023/08/06 14:51:53;;;;;;;1.60;0.80;;;;;;;;;;5022824;28;20033;-73
2023/08/06 14:54:38;;;;;;;2.47;0.80;;;;;;;;;;4992705;28;20437;-71
2023/08/06 14:57:27;;;;;;;3.00;0.80;;;;;;;;;;5008474;28;20108;-63
2023/08/06 15:00:12;;;;;;;0.70;0.70;;;;;;;;;;5009533;28;20026;-64
2023/08/06 15:02:58;;;;;;;2.17;0.90;;;;;;;;;;4997352;28;20046;-63
2023/08/06 15:05:44;;;;;;;1.17;1.00;;;;;;;;;;5006843;28;20029;-65
2023/08/06 15:08:29;;;;;;;1.02;0.90;;;;;;;;;;5006752;28;20038;-63
2023/08/06 15:11:15;;;;;;;2.38;0.77;;;;;;;;;;5009557;28;20053;-62
2023/08/06 15:14:00;;;;;;;0.75;0.75;;;;;;;;;;5022999;28;20045;-63
2023/08/06 15:16:46;;;;;;;1.73;0.80;;;;;;;;;;5020845;28;20042;-67
2023/08/06 15:19:31;;;;;;;0.93;0.82;;;;;;;;;;5002804;28;20369;-67
2023/08/06 15:22:16;;;;;;;1.00;0.80;;;;;;;;;;5022065;28;20090;-67
2023/08/06 15:25:03;;;;;;;1.52;1.05;;;;;;;;;;5005353;28;20097;-68
2023/08/06 15:27:49;;;;;;;1.40;1.30;;;;;;;;;;5008732;28;20053;-67
2023/08/06 15:30:34;;;;;;;1.20;1.00;;;;;;;;;;5003339;28;20058;-67
2023/08/06 15:33:20;;;;;;;1.17;0.88;;;;;;;;;;5001589;28;20057;-67
2023/08/06 15:36:05;;;;;;;2.30;0.90;;;;;;;;;;5021391;28;20217;-80
2023/08/06 15:38:50;;;;;;;3.83;0.70;;;;;;;;;;5008579;28;20134;-73
2023/08/06 15:41:35;;;;;;;0.93;0.75;;;;;;;;;;4995306;28;20454;-73
2023/08/06 15:44:21;;;;;;;0.95;0.80;;;;;;;;;;5005186;28;20040;-72
2023/08/06 15:47:06;;;;;;;2.67;1.35;;;;;;;;;;5007382;28;20029;-74
2023/08/06 15:49:51;;;;;;;0.82;0.80;;;;;;;;;;5009337;28;20034;-72
2023/08/06 15:52:36;;;;;;;0.80;0.80;;;;;;;;;;5003690;28;20030;-83
2023/08/06 15:55:21;;;;;;;1.20;1.10;;;;;;;;;;5003638;28;20050;-66
2023/08/06 15:58:08;;;;;;;1.27;0.90;;;;;;;;;;5008442;28;20046;-66
2023/08/06 16:00:53;;;;;;;1.00;0.90;;;;;;;;;;5006668;28;20030;-66
2023/08/06 16:03:41;;;;;;;4.35;1.30;;;;;;;;;;5008769;28;20040;-66
2023/08/06 16:06:26;;;;;;;4.10;1.00;;;;;;;;;;4996979;28;20057;-67
2023/08/06 16:09:12;;;;;;;1.88;1.00;;;;;;;;;;5008299;28;20148;-66
2023/08/06 16:11:58;;;;;;;1.10;0.90;;;;;;;;;;5022618;28;20129;-67
2023/08/06 16:14:43;;;;;;;1.95;0.90;;;;;;;;;;5008338;28;20500;-72
2023/08/06 16:17:28;;;;;;;1.52;1.00;;;;;;;;;;5020599;28;20042;-72
2023/08/06 16:20:14;;;;;;;0.68;0.65;;;;;;;;;;5005355;28;20495;-72
2023/08/06 16:22:59;;;;;;;3.97;0.98;;;;;;;;;;5020952;28;20053;-71
2023/08/06 16:25:47;;;;;;;1.40;0.90;;;;;;;;;;5007458;28;20028;-71
2023/08/06 16:28:32;;;;;;;1.65;1.10;;;;;;;;;;5007941;28;20173;-72
2023/08/06 16:31:18;;;;;;;2.13;1.20;;;;;;;;;;5004201;28;20567;-66
2023/08/06 16:34:03;;;;;;;1.60;0.98;;;;;;;;;;5007689;28;20485;-75
2023/08/06 16:36:48;;;;;;;1.35;0.90;;;;;;;;;;5020787;28;20041;-74